Mulungu, Brazil
Current Conditions -  °F | °C
As of 6:00 PM on Saturday 22 Nov 2014 (Local Time) from SBFZ Reporting Station
Clear Clear  
Wind Chill: 81°   Ceiling: Unl
Heat Index: 83°   Visibility: 6mi
Dew Point: 68°   Wind: 12mph
Humidity: 65%   Direction: 90°E
Pressure: 29.85"   Gusts: NA
Location:  4.31°S, 39°W
Report Text: SBFZ 222100Z 09010KT CAVOK 27/20 Q1011
Loading
Personal Weather Stations






























Interactive Weather Map New forecast layout! Learn more

10-Day Weather Forecast

Advertisements
Track Severe Weather on mobile